Baltic Frost — 9HA2868 — position and weather

sailwx.info

Track history (hours):
 
Tides and Currents Weather Stations Pressure Air Temp Water Temp Dewpoint Dewpoint Depression Visibility Wind Speed Wind Dir Waves Ship Positions

Baltic Frost

Last reported at 2015-Feb-27 03:31 UTC. Time now 2015-Feb-27 04:05 UTC.
Position N 49°29' E 000°11'.

Length 182 m; draft 7.2 m.

Type: Ship. MMSI: 256495000.

Date/timePositionNaut miles runAvg speedWind from/ knotsBaromVisibWave heightAir tempDewpointWater temp
2015-Feb-27 03:31N 49°29' E 000°11'0 0.0
2015-Feb-27 02:33N 49°29' E 000°11'0 0.0
2015-Feb-27 01:33N 49°29' E 000°11'0 0.0
2015-Feb-27 00:32N 49°29' E 000°11'0 0.0
2015-Feb-26 23:32N 49°29' E 000°11'0 0.0
2015-Feb-26 22:31N 49°29' E 000°11'0 0.0
2015-Feb-26 21:31N 49°29' E 000°11'0 0.0
2015-Feb-26 20:31N 49°29' E 000°11'0 0.0
2015-Feb-26 19:33N 49°29' E 000°11'0 0.0
2015-Feb-26 18:33N 49°29' E 000°11'0 0.0
2015-Feb-26 17:32N 49°29' E 000°11'0 0.0
2015-Feb-26 16:32N 49°29' E 000°11'0 0.0
2015-Feb-26 15:31N 49°29' E 000°11'0 0.0
2015-Feb-26 14:31N 49°29' E 000°11'0 0.0
2015-Feb-26 13:31N 49°29' E 000°11'0 0.0
2015-Feb-26 12:33N 49°29' E 000°11'0 0.0
2015-Feb-26 11:33N 49°29' E 000°11'0 0.0
2015-Feb-26 10:32N 49°29' E 000°11'0 0.0
2015-Feb-26 09:29N 49°29' E 000°11'0 0.0
2015-Feb-26 08:31N 49°29' E 000°11'0 0.0
2015-Feb-26 07:25N 49°29' E 000°11'0 0.0
2015-Feb-26 06:31N 49°29' E 000°11'0 0.0
2015-Feb-26 05:33N 49°29' E 000°11'0 0.0
2015-Feb-26 04:15N 49°29' E 000°11'0 0.0
2015-Feb-26 03:29N 49°29' E 000°11'0 0.0
2015-Feb-26 02:32N 49°29' E 000°11'0 0.0
2015-Feb-26 01:31N 49°29' E 000°11'0 0.0
2015-Feb-26 00:31N 49°29' E 000°11'0 0.0
2015-Feb-25 23:30N 49°29' E 000°11'0 0.0
2015-Feb-25 22:33N 49°29' E 000°11'0 0.0
2015-Feb-25 21:33N 49°29' E 000°11'0 0.0
2015-Feb-25 20:32N 49°29' E 000°11'0 0.0
2015-Feb-25 19:32N 49°29' E 000°11'0 0.0
2015-Feb-25 18:31N 49°29' E 000°11'0 0.0
2015-Feb-25 17:33N 49°29' E 000°11'1 0.6
2015-Feb-25 16:33N 49°29' E 000°10'8 8.3
2015-Feb-25 15:33N 49°30' W 000°02'10 9.6
2015-Feb-25 14:33N 49°35' W 000°15'4 3.9
2015-Feb-25 13:32N 49°36' W 000°21'  
2015-Feb-21 18:19N 39°13' W 009°57'1010.9
2015-Feb-21 17:25N 39°03' W 009°57'1211.2
2015-Feb-21 16:19N 38°51' W 009°57'810.8
2015-Feb-21 15:32N 38°42' W 009°57'1010.5
2015-Feb-21 14:33N 38°33' W 009°51'1211.5
2015-Feb-21 13:32N 38°25' W 009°41'1111.4
2015-Feb-21 12:32N 38°16' W 009°31'1211.9
2015-Feb-21 11:33N 38°08' W 009°20'1312.4
2015-Feb-21 10:33N 37°59' W 009°09'1211.9
2015-Feb-21 09:33N 37°56' W 008°55'2 1.7
2015-Feb-21 08:32N 37°57' W 008°53'0 0.0
2015-Feb-21 07:29N 37°57' W 008°53'0 0.0
2015-Feb-21 06:31N 37°57' W 008°53'0 0.0
2015-Feb-21 05:28N 37°57' W 008°53'0 0.0
2015-Feb-21 04:33N 37°57' W 008°53'0 0.0
2015-Feb-21 03:33N 37°57' W 008°53'0 0.0
2015-Feb-21 02:33N 37°57' W 008°53'0 0.0
2015-Feb-21 01:32N 37°57' W 008°53'0 0.0
2015-Feb-21 00:32N 37°57' W 008°53'0 0.0
2015-Feb-20 23:31N 37°57' W 008°53'0 0.0
2015-Feb-20 22:31N 37°57' W 008°53'0 0.0
2015-Feb-20 21:33N 37°57' W 008°53'0 0.0
2015-Feb-20 20:33N 37°57' W 008°53'0 0.0
2015-Feb-20 19:32N 37°57' W 008°53'0 0.0
2015-Feb-20 18:32N 37°57' W 008°53'0 0.0
2015-Feb-20 17:32N 37°57' W 008°53'0 0.0
2015-Feb-20 16:31N 37°57' W 008°53'0 0.0
2015-Feb-20 15:31N 37°57' W 008°53'0 0.0
2015-Feb-20 14:33N 37°57' W 008°53'0 0.0
2015-Feb-20 13:33N 37°57' W 008°53'0 0.0
2015-Feb-20 12:32N 37°57' W 008°53'0 0.0
2015-Feb-20 11:32N 37°57' W 008°53'0 0.0
2015-Feb-20 10:32N 37°57' W 008°53'0 0.0
2015-Feb-20 09:31N 37°57' W 008°53'0 0.0
2015-Feb-20 08:28N 37°57' W 008°53'0 0.0
2015-Feb-20 07:33N 37°57' W 008°53'0 0.0
2015-Feb-20 06:33N 37°57' W 008°53'1 0.5
2015-Feb-20 05:33N 37°56' W 008°53'3 3.1
2015-Feb-20 04:31N 37°53' W 008°52'0 0.0
2015-Feb-20 03:33N 37°53' W 008°52'0 0.0
2015-Feb-20 02:33N 37°53' W 008°52'0 0.0
2015-Feb-20 01:32N 37°53' W 008°52'0 0.0
2015-Feb-20 00:32N 37°53' W 008°52'0 0.0
2015-Feb-19 23:32N 37°53' W 008°52'0 0.0
2015-Feb-19 22:31N 37°53' W 008°52'0 0.0
2015-Feb-19 21:31N 37°53' W 008°52'0 0.0
2015-Feb-19 20:33N 37°53' W 008°52'0 0.0
2015-Feb-19 19:33N 37°53' W 008°52'0 0.0
2015-Feb-19 18:32N 37°53' W 008°52'0 0.5
2015-Feb-19 17:33N 37°53' W 008°52'9 9.0
2015-Feb-19 16:33N 37°53' W 009°04'1313.2
2015-Feb-19 15:33N 38°01' W 009°17'1413.8
2015-Feb-19 14:33N 38°10' W 009°31'1313.7
2015-Feb-19 13:34N 38°18' W 009°44'1813.3
2015-Feb-19 12:13N 38°30' W 010°01'1013.0
2015-Feb-19 11:26N 38°37' W 010°10'  
Track history (hours):
 
Tides and Currents Weather Stations Pressure Air Temp Water Temp Dewpoint Dewpoint Depression Visibility Wind Speed Wind Dir Waves Ship Positions

Baltic Frost

Last reported at 2015-Feb-27 03:31 UTC. Time now 2015-Feb-27 04:05 UTC.
Position N 49°29' E 000°11'.

Length 182 m; draft 7.2 m.

Type: Ship. MMSI: 256495000.

Date/timePositionNaut miles runAvg speedWind from/ knotsBaromVisibWave heightAir tempDewpointWater temp
2015-Feb-27 03:31N 49°29' E 000°11'0 0.0
2015-Feb-27 02:33N 49°29' E 000°11'0 0.0
2015-Feb-27 01:33N 49°29' E 000°11'0 0.0
2015-Feb-27 00:32N 49°29' E 000°11'0 0.0
2015-Feb-26 23:32N 49°29' E 000°11'0 0.0
2015-Feb-26 22:31N 49°29' E 000°11'0 0.0
2015-Feb-26 21:31N 49°29' E 000°11'0 0.0
2015-Feb-26 20:31N 49°29' E 000°11'0 0.0
2015-Feb-26 19:33N 49°29' E 000°11'0 0.0
2015-Feb-26 18:33N 49°29' E 000°11'0 0.0
2015-Feb-26 17:32N 49°29' E 000°11'0 0.0
2015-Feb-26 16:32N 49°29' E 000°11'0 0.0
2015-Feb-26 15:31N 49°29' E 000°11'0 0.0
2015-Feb-26 14:31N 49°29' E 000°11'0 0.0
2015-Feb-26 13:31N 49°29' E 000°11'0 0.0
2015-Feb-26 12:33N 49°29' E 000°11'0 0.0
2015-Feb-26 11:33N 49°29' E 000°11'0 0.0
2015-Feb-26 10:32N 49°29' E 000°11'0 0.0
2015-Feb-26 09:29N 49°29' E 000°11'0 0.0
2015-Feb-26 08:31N 49°29' E 000°11'0 0.0
2015-Feb-26 07:25N 49°29' E 000°11'0 0.0
2015-Feb-26 06:31N 49°29' E 000°11'0 0.0
2015-Feb-26 05:33N 49°29' E 000°11'0 0.0
2015-Feb-26 04:15N 49°29' E 000°11'0 0.0
2015-Feb-26 03:29N 49°29' E 000°11'0 0.0
2015-Feb-26 02:32N 49°29' E 000°11'0 0.0
2015-Feb-26 01:31N 49°29' E 000°11'0 0.0
2015-Feb-26 00:31N 49°29' E 000°11'0 0.0
2015-Feb-25 23:30N 49°29' E 000°11'0 0.0
2015-Feb-25 22:33N 49°29' E 000°11'0 0.0
2015-Feb-25 21:33N 49°29' E 000°11'0 0.0
2015-Feb-25 20:32N 49°29' E 000°11'0 0.0
2015-Feb-25 19:32N 49°29' E 000°11'0 0.0
2015-Feb-25 18:31N 49°29' E 000°11'0 0.0
2015-Feb-25 17:33N 49°29' E 000°11'1 0.6
2015-Feb-25 16:33N 49°29' E 000°10'8 8.3
2015-Feb-25 15:33N 49°30' W 000°02'10 9.6
2015-Feb-25 14:33N 49°35' W 000°15'4 3.9
2015-Feb-25 13:32N 49°36' W 000°21'  
2015-Feb-21 18:19N 39°13' W 009°57'1010.9
2015-Feb-21 17:25N 39°03' W 009°57'1211.2
2015-Feb-21 16:19N 38°51' W 009°57'810.8
2015-Feb-21 15:32N 38°42' W 009°57'1010.5
2015-Feb-21 14:33N 38°33' W 009°51'1211.5
2015-Feb-21 13:32N 38°25' W 009°41'1111.4
2015-Feb-21 12:32N 38°16' W 009°31'1211.9
2015-Feb-21 11:33N 38°08' W 009°20'1312.4
2015-Feb-21 10:33N 37°59' W 009°09'1211.9
2015-Feb-21 09:33N 37°56' W 008°55'2 1.7
2015-Feb-21 08:32N 37°57' W 008°53'0 0.0
2015-Feb-21 07:29N 37°57' W 008°53'0 0.0
2015-Feb-21 06:31N 37°57' W 008°53'0 0.0
2015-Feb-21 05:28N 37°57' W 008°53'0 0.0
2015-Feb-21 04:33N 37°57' W 008°53'0 0.0
2015-Feb-21 03:33N 37°57' W 008°53'0 0.0
2015-Feb-21 02:33N 37°57' W 008°53'0 0.0
2015-Feb-21 01:32N 37°57' W 008°53'0 0.0
2015-Feb-21 00:32N 37°57' W 008°53'0 0.0
2015-Feb-20 23:31N 37°57' W 008°53'0 0.0
2015-Feb-20 22:31N 37°57' W 008°53'0 0.0
2015-Feb-20 21:33N 37°57' W 008°53'0 0.0
2015-Feb-20 20:33N 37°57' W 008°53'0 0.0
2015-Feb-20 19:32N 37°57' W 008°53'0 0.0
2015-Feb-20 18:32N 37°57' W 008°53'0 0.0
2015-Feb-20 17:32N 37°57' W 008°53'0 0.0
2015-Feb-20 16:31N 37°57' W 008°53'0 0.0
2015-Feb-20 15:31N 37°57' W 008°53'0 0.0
2015-Feb-20 14:33N 37°57' W 008°53'0 0.0
2015-Feb-20 13:33N 37°57' W 008°53'0 0.0
2015-Feb-20 12:32N 37°57' W 008°53'0 0.0
2015-Feb-20 11:32N 37°57' W 008°53'0 0.0
2015-Feb-20 10:32N 37°57' W 008°53'0 0.0
2015-Feb-20 09:31N 37°57' W 008°53'0 0.0
2015-Feb-20 08:28N 37°57' W 008°53'0 0.0
2015-Feb-20 07:33N 37°57' W 008°53'0 0.0
2015-Feb-20 06:33N 37°57' W 008°53'1 0.5
2015-Feb-20 05:33N 37°56' W 008°53'3 3.1
2015-Feb-20 04:31N 37°53' W 008°52'0 0.0
2015-Feb-20 03:33N 37°53' W 008°52'0 0.0
2015-Feb-20 02:33N 37°53' W 008°52'0 0.0
2015-Feb-20 01:32N 37°53' W 008°52'0 0.0
2015-Feb-20 00:32N 37°53' W 008°52'0 0.0
2015-Feb-19 23:32N 37°53' W 008°52'0 0.0
2015-Feb-19 22:31N 37°53' W 008°52'0 0.0
2015-Feb-19 21:31N 37°53' W 008°52'0 0.0
2015-Feb-19 20:33N 37°53' W 008°52'0 0.0
2015-Feb-19 19:33N 37°53' W 008°52'0 0.0
2015-Feb-19 18:32N 37°53' W 008°52'0 0.5
2015-Feb-19 17:33N 37°53' W 008°52'9 9.0
2015-Feb-19 16:33N 37°53' W 009°04'1313.2
2015-Feb-19 15:33N 38°01' W 009°17'1413.8
2015-Feb-19 14:33N 38°10' W 009°31'1313.7
2015-Feb-19 13:34N 38°18' W 009°44'1813.3
2015-Feb-19 12:13N 38°30' W 010°01'1013.0
2015-Feb-19 11:26N 38°37' W 010°10'  

Dump ship's entire track history